Time;durP1;ratioP1;P1;durP2;ratioP2;P2;SDS_P1;SDS_P2;PMS_P1;PMS_P2;Temp;Humidity;BMP_temperature;BMP_pressure;BME280_temperature;BME280_humidity;BME280_pressure;Samples;Min_cycle;Max_cycle;Signal;HPM_P1;HPM_P2
2023/08/24 00:02:07;;;;;;;5.22;3.60;;;;;;;;;;5092834;28;20082;-65
2023/08/24 00:04:33;;;;;;;7.13;3.67;;;;;;;;;;5094450;28;20068;-65
2023/08/24 00:07:00;;;;;;;5.47;3.60;;;;;;;;;;5093871;28;20396;-65
2023/08/24 00:09:26;;;;;;;6.43;3.88;;;;;;;;;;5093686;28;20482;-65
2023/08/24 00:11:52;;;;;;;6.30;3.97;;;;;;;;;;5094189;28;20055;-65
2023/08/24 00:14:18;;;;;;;6.00;4.10;;;;;;;;;;5093779;28;20046;-65
2023/08/24 00:16:45;;;;;;;5.40;3.97;;;;;;;;;;5093860;28;20441;-65
2023/08/24 00:19:11;;;;;;;5.35;4.25;;;;;;;;;;5094139;28;20036;-65
2023/08/24 00:21:37;;;;;;;5.82;3.92;;;;;;;;;;5093668;28;20478;-65
2023/08/24 00:24:03;;;;;;;5.68;3.63;;;;;;;;;;5094148;28;20592;-65
2023/08/24 00:26:29;;;;;;;6.35;4.13;;;;;;;;;;5081099;28;20348;-65
2023/08/24 00:28:55;;;;;;;5.78;3.90;;;;;;;;;;5073004;28;20089;-65
2023/08/24 00:31:21;;;;;;;6.50;4.20;;;;;;;;;;5073604;28;20045;-65
2023/08/24 00:33:47;;;;;;;7.15;4.90;;;;;;;;;;5072351;28;20047;-65
2023/08/24 00:36:13;;;;;;;6.65;4.22;;;;;;;;;;5073104;28;20045;-65
2023/08/24 00:38:39;;;;;;;7.20;4.50;;;;;;;;;;5073766;28;20476;-65
2023/08/24 00:41:05;;;;;;;8.13;4.05;;;;;;;;;;5073524;28;20467;-65
2023/08/24 00:43:31;;;;;;;5.50;3.97;;;;;;;;;;5071813;28;20473;-65
2023/08/24 00:46:00;;;;;;;6.10;3.75;;;;;;;;;;5073268;28;20036;-65
2023/08/24 00:48:29;;;;;;;6.32;4.10;;;;;;;;;;5073344;28;20033;-65
2023/08/24 00:50:56;;;;;;;6.43;4.00;;;;;;;;;;5093133;28;20044;-65
2023/08/24 00:53:24;;;;;;;4.85;3.65;;;;;;;;;;5093411;28;20402;-64
2023/08/24 00:55:51;;;;;;;6.78;4.10;;;;;;;;;;5093395;28;20040;-64
2023/08/24 00:58:18;;;;;;;6.45;3.55;;;;;;;;;;5092698;28;20031;-65
2023/08/24 01:00:44;;;;;;;5.53;3.58;;;;;;;;;;5093254;28;20440;-65
2023/08/24 01:03:10;;;;;;;5.78;3.40;;;;;;;;;;5093216;28;20114;-64
2023/08/24 01:05:37;;;;;;;3.80;3.50;;;;;;;;;;5092469;28;20119;-65
2023/08/24 01:08:03;;;;;;;3.90;3.40;;;;;;;;;;5093159;28;20047;-65
2023/08/24 01:10:38;;;;;;;6.18;3.22;;;;;;;;;;5092840;28;20089;-65
2023/08/24 01:13:11;;;;;;;2.88;2.67;;;;;;;;;;5092688;28;20087;-65
2023/08/24 01:15:56;;;;;;;5.10;2.88;;;;;;;;;;5093096;28;20097;-65
2023/08/24 01:18:26;;;;;;;5.80;3.28;;;;;;;;;;5092991;28;20475;-65
2023/08/24 01:20:52;;;;;;;8.13;4.03;;;;;;;;;;5091544;28;20482;-65
2023/08/24 01:23:32;;;;;;;9.25;4.50;;;;;;;;;;5092899;28;20047;-65
2023/08/24 01:26:03;;;;;;;9.30;5.10;;;;;;;;;;5084214;28;20055;-65
2023/08/24 01:28:30;;;;;;;10.90;6.45;;;;;;;;;;5072021;28;20387;-65
2023/08/24 01:30:56;;;;;;;13.85;7.97;;;;;;;;;;5072332;28;20036;-65
2023/08/24 01:33:22;;;;;;;18.35;9.27;;;;;;;;;;5072379;28;20090;-65
2023/08/24 01:35:48;;;;;;;23.00;11.23;;;;;;;;;;5071691;28;20079;-65
2023/08/24 01:38:15;;;;;;;26.30;12.50;;;;;;;;;;5072466;28;20107;-65
2023/08/24 01:40:54;;;;;;;17.90;8.55;;;;;;;;;;5072300;28;20683;-65
2023/08/24 01:43:22;;;;;;;10.25;5.70;;;;;;;;;;5071913;28;20036;-64
2023/08/24 01:45:48;;;;;;;6.95;4.20;;;;;;;;;;5072091;28;20041;-64
2023/08/24 01:48:14;;;;;;;6.25;4.10;;;;;;;;;;5072183;28;20082;-64
2023/08/24 01:50:40;;;;;;;9.38;4.53;;;;;;;;;;5090120;28;20036;-64
2023/08/24 01:53:07;;;;;;;5.38;3.53;;;;;;;;;;5092389;28;20088;-65
2023/08/24 01:55:33;;;;;;;6.35;4.07;;;;;;;;;;5090777;28;20044;-65
2023/08/24 01:57:59;;;;;;;7.78;3.80;;;;;;;;;;5091867;28;20044;-65
2023/08/24 02:00:25;;;;;;;7.53;3.70;;;;;;;;;;5091913;28;20075;-65
2023/08/24 02:02:51;;;;;;;5.63;3.42;;;;;;;;;;5092306;28;20044;-65
2023/08/24 02:05:17;;;;;;;8.15;4.13;;;;;;;;;;5091421;28;20050;-65
2023/08/24 02:07:43;;;;;;;5.28;3.85;;;;;;;;;;5092163;28;20531;-65
2023/08/24 02:10:09;;;;;;;7.15;4.15;;;;;;;;;;5092065;28;20036;-65
2023/08/24 02:12:35;;;;;;;5.28;4.05;;;;;;;;;;5091659;28;20593;-65
2023/08/24 02:15:02;;;;;;;6.57;4.30;;;;;;;;;;5092100;28;20125;-65
2023/08/24 02:17:28;;;;;;;7.75;4.75;;;;;;;;;;5092111;28;20119;-65
2023/08/24 02:19:55;;;;;;;7.68;4.25;;;;;;;;;;5091517;28;20043;-65
2023/08/24 02:22:21;;;;;;;9.07;4.72;;;;;;;;;;5091937;28;20079;-65
2023/08/24 02:24:47;;;;;;;8.40;4.38;;;;;;;;;;5091529;28;20032;-65
2023/08/24 02:27:13;;;;;;;5.97;3.60;;;;;;;;;;5070965;28;20120;-65
2023/08/24 02:29:39;;;;;;;7.93;3.85;;;;;;;;;;5071244;28;20422;-65
2023/08/24 02:32:06;;;;;;;7.18;3.83;;;;;;;;;;5071090;28;20094;-65
2023/08/24 02:34:32;;;;;;;8.30;4.50;;;;;;;;;;5071191;28;20442;-65
2023/08/24 02:36:58;;;;;;;6.85;4.38;;;;;;;;;;5071504;28;20098;-65
2023/08/24 02:39:25;;;;;;;7.38;4.25;;;;;;;;;;5071601;28;20502;-65
2023/08/24 02:41:51;;;;;;;7.75;4.18;;;;;;;;;;5071113;28;20532;-65
2023/08/24 02:44:17;;;;;;;8.48;4.47;;;;;;;;;;5071436;28;20045;-64
2023/08/24 02:46:46;;;;;;;8.45;4.90;;;;;;;;;;5071544;28;20086;-65
2023/08/24 02:49:12;;;;;;;7.40;4.63;;;;;;;;;;5077213;28;20028;-64
2023/08/24 02:51:38;;;;;;;8.02;4.80;;;;;;;;;;5091502;28;20075;-64
2023/08/24 02:54:05;;;;;;;6.32;4.28;;;;;;;;;;5090264;28;20051;-65
2023/08/24 02:56:31;;;;;;;5.22;3.83;;;;;;;;;;5091535;28;20040;-65
2023/08/24 02:58:57;;;;;;;5.03;4.00;;;;;;;;;;5091237;28;20504;-65
2023/08/24 03:01:23;;;;;;;6.55;4.10;;;;;;;;;;5091404;28;20040;-65
2023/08/24 03:03:49;;;;;;;6.43;4.22;;;;;;;;;;5091483;28;20498;-64
2023/08/24 03:06:15;;;;;;;10.13;4.93;;;;;;;;;;5091023;28;20043;-64
2023/08/24 03:08:41;;;;;;;6.65;4.32;;;;;;;;;;5091340;28;20587;-65
2023/08/24 03:11:07;;;;;;;5.60;4.68;;;;;;;;;;5091383;28;20153;-65
2023/08/24 03:13:37;;;;;;;5.78;4.38;;;;;;;;;;5091033;28;20056;-65
2023/08/24 03:16:04;;;;;;;7.00;4.57;;;;;;;;;;5091489;28;20047;-65
2023/08/24 03:18:31;;;;;;;6.43;4.57;;;;;;;;;;5091371;28;20036;-65
2023/08/24 03:20:57;;;;;;;6.13;4.03;;;;;;;;;;5090837;28;20394;-65
2023/08/24 03:23:23;;;;;;;6.78;3.90;;;;;;;;;;5091074;28;20094;-64
2023/08/24 03:25:49;;;;;;;7.40;4.38;;;;;;;;;;5083676;28;20045;-64
2023/08/24 03:28:15;;;;;;;6.05;4.13;;;;;;;;;;5070250;28;20052;-65
2023/08/24 03:30:46;;;;;;;8.80;4.75;;;;;;;;;;5070881;28;20051;-65
2023/08/24 03:33:12;;;;;;;6.68;4.40;;;;;;;;;;5070958;28;20041;-65
2023/08/24 03:35:38;;;;;;;5.95;4.60;;;;;;;;;;5070462;28;20666;-65
2023/08/24 03:38:04;;;;;;;7.55;4.70;;;;;;;;;;5070995;28;20048;-65
2023/08/24 03:40:30;;;;;;;7.18;4.00;;;;;;;;;;5070919;28;20444;-64
2023/08/24 03:42:56;;;;;;;5.40;3.97;;;;;;;;;;5070587;28;20123;-64
2023/08/24 03:45:23;;;;;;;7.57;4.80;;;;;;;;;;5074321;28;20113;-64
2023/08/24 03:47:49;;;;;;;7.07;4.22;;;;;;;;;;5074423;28;20032;-64
2023/08/24 03:50:15;;;;;;;6.50;4.60;;;;;;;;;;5088919;28;20036;-65
2023/08/24 03:52:41;;;;;;;8.48;4.60;;;;;;;;;;5094621;28;20044;-64
2023/08/24 03:55:08;;;;;;;6.85;4.80;;;;;;;;;;5094710;28;20477;-65
2023/08/24 03:57:34;;;;;;;5.43;4.70;;;;;;;;;;5094025;28;20051;-65
2023/08/24 04:00:00;;;;;;;8.93;4.95;;;;;;;;;;5094495;28;20571;-65
2023/08/24 04:02:26;;;;;;;6.78;4.70;;;;;;;;;;5094530;28;20044;-65
2023/08/24 04:04:52;;;;;;;8.40;4.72;;;;;;;;;;5093941;28;20093;-64
2023/08/24 04:07:18;;;;;;;6.40;4.80;;;;;;;;;;5094341;28;20039;-64
2023/08/24 04:09:45;;;;;;;7.90;5.07;;;;;;;;;;5094224;28;20032;-64
2023/08/24 04:12:11;;;;;;;10.75;5.07;;;;;;;;;;5093933;28;20551;-64
2023/08/24 04:14:37;;;;;;;7.75;4.50;;;;;;;;;;5094279;28;20131;-64
2023/08/24 04:17:03;;;;;;;9.70;5.22;;;;;;;;;;5094271;28;20044;-64
2023/08/24 04:19:30;;;;;;;9.40;5.40;;;;;;;;;;5093819;28;20048;-64
2023/08/24 04:21:56;;;;;;;7.05;5.03;;;;;;;;;;5093719;28;20048;-65
2023/08/24 04:24:22;;;;;;;8.70;4.95;;;;;;;;;;5094058;28;20131;-64
2023/08/24 04:26:48;;;;;;;8.07;4.90;;;;;;;;;;5078179;28;20088;-64
2023/08/24 04:29:14;;;;;;;10.57;5.38;;;;;;;;;;5073536;28;20709;-64
2023/08/24 04:31:42;;;;;;;9.07;5.57;;;;;;;;;;5073602;28;20053;-64
2023/08/24 04:34:09;;;;;;;13.10;5.97;;;;;;;;;;5072736;28;20055;-64
2023/08/24 04:36:35;;;;;;;10.55;6.10;;;;;;;;;;5073611;28;20044;-65
2023/08/24 04:39:01;;;;;;;8.50;5.93;;;;;;;;;;5073642;28;20045;-64
2023/08/24 04:41:28;;;;;;;8.88;5.78;;;;;;;;;;5073047;28;20051;-64
2023/08/24 04:43:54;;;;;;;9.93;6.20;;;;;;;;;;5073483;28;20044;-64
2023/08/24 04:46:20;;;;;;;11.73;6.32;;;;;;;;;;5073323;28;20444;-64
2023/08/24 04:48:46;;;;;;;8.63;6.18;;;;;;;;;;5075541;28;20029;-64
2023/08/24 04:51:12;;;;;;;11.57;5.97;;;;;;;;;;5093430;28;20127;-64
2023/08/24 04:53:39;;;;;;;9.77;6.68;;;;;;;;;;5093542;28;20036;-64
2023/08/24 04:56:05;;;;;;;10.63;7.10;;;;;;;;;;5092841;28;20086;-64
2023/08/24 04:58:31;;;;;;;11.00;6.75;;;;;;;;;;5092178;28;20055;-64
2023/08/24 05:00:57;;;;;;;9.98;6.47;;;;;;;;;;5093187;28;20036;-64
2023/08/24 05:03:23;;;;;;;11.18;6.90;;;;;;;;;;5092932;28;20436;-64
2023/08/24 05:05:49;;;;;;;11.95;7.10;;;;;;;;;;5093167;28;20067;-64
2023/08/24 05:08:15;;;;;;;12.25;6.88;;;;;;;;;;5093292;28;20744;-64
2023/08/24 05:10:41;;;;;;;12.45;7.18;;;;;;;;;;5092422;28;20122;-64
2023/08/24 05:13:07;;;;;;;13.60;7.63;;;;;;;;;;5093171;28;20040;-64
2023/08/24 05:15:33;;;;;;;13.90;6.88;;;;;;;;;;5091569;28;20367;-65
2023/08/24 05:17:59;;;;;;;13.95;7.40;;;;;;;;;;5092729;28;20123;-64
2023/08/24 05:20:28;;;;;;;11.75;6.90;;;;;;;;;;5092849;28;20040;-65
2023/08/24 05:22:55;;;;;;;13.82;7.25;;;;;;;;;;5092966;28;20040;-65
2023/08/24 05:25:21;;;;;;;10.38;6.95;;;;;;;;;;5089398;28;20044;-64
2023/08/24 05:27:47;;;;;;;13.63;7.35;;;;;;;;;;5072326;28;20123;-64
2023/08/24 05:30:13;;;;;;;11.30;7.50;;;;;;;;;;5072129;28;20090;-64
2023/08/24 05:32:39;;;;;;;12.07;7.60;;;;;;;;;;5072172;28;20115;-64
2023/08/24 05:35:06;;;;;;;11.63;7.72;;;;;;;;;;5072363;28;20101;-64
2023/08/24 05:37:32;;;;;;;10.68;7.68;;;;;;;;;;5071092;28;20546;-64
2023/08/24 05:39:59;;;;;;;12.55;7.43;;;;;;;;;;5071957;28;20459;-65
2023/08/24 05:42:25;;;;;;;11.02;7.03;;;;;;;;;;5072346;28;20040;-64
2023/08/24 05:44:51;;;;;;;10.05;7.05;;;;;;;;;;5071978;28;20166;-64
2023/08/24 05:47:17;;;;;;;12.43;6.97;;;;;;;;;;5071342;28;20040;-64
2023/08/24 05:49:43;;;;;;;14.57;7.35;;;;;;;;;;5081289;28;20083;-63
2023/08/24 05:52:09;;;;;;;12.13;6.82;;;;;;;;;;5092067;28;20036;-64
2023/08/24 05:54:38;;;;;;;14.25;7.60;;;;;;;;;;5091578;28;20044;-63
2023/08/24 05:57:05;;;;;;;15.23;7.68;;;;;;;;;;5091648;28;20051;-64
2023/08/24 05:59:31;;;;;;;13.68;7.80;;;;;;;;;;5091950;28;20040;-64
2023/08/24 06:01:57;;;;;;;9.80;6.90;;;;;;;;;;5091605;28;20040;-64
2023/08/24 06:04:23;;;;;;;12.82;8.15;;;;;;;;;;5091750;28;20137;-64
2023/08/24 06:06:49;;;;;;;13.48;7.10;;;;;;;;;;5090076;28;20890;-64
2023/08/24 06:09:15;;;;;;;13.57;7.38;;;;;;;;;;5091408;28;20490;-64
2023/08/24 06:11:41;;;;;;;15.68;6.80;;;;;;;;;;5091685;28;20094;-64
2023/08/24 06:14:08;;;;;;;11.05;8.00;;;;;;;;;;5091986;28;20050;-64
2023/08/24 06:16:34;;;;;;;11.40;8.20;;;;;;;;;;5091278;28;20419;-64
2023/08/24 06:19:00;;;;;;;10.48;7.10;;;;;;;;;;5091690;28;20047;-65
2023/08/24 06:21:26;;;;;;;11.48;7.25;;;;;;;;;;5091497;28;20048;-65
2023/08/24 06:23:52;;;;;;;11.15;7.15;;;;;;;;;;5091284;28;20044;-63
2023/08/24 06:26:18;;;;;;;12.80;7.60;;;;;;;;;;5091433;28;20118;-64
2023/08/24 06:28:45;;;;;;;10.02;6.70;;;;;;;;;;5091153;28;20465;-63
2023/08/24 06:31:11;;;;;;;11.07;6.53;;;;;;;;;;5091133;28;20400;-63
2023/08/24 06:33:37;;;;;;;8.88;6.20;;;;;;;;;;5091169;28;20531;-64
2023/08/24 06:36:07;;;;;;;12.48;6.43;;;;;;;;;;5091354;28;20036;-66
2023/08/24 06:38:34;;;;;;;11.15;6.20;;;;;;;;;;5091133;28;20036;-65
2023/08/24 06:41:00;;;;;;;10.80;5.88;;;;;;;;;;5091058;28;20036;-65
2023/08/24 06:43:27;;;;;;;10.98;5.47;;;;;;;;;;5091452;28;20036;-65
2023/08/24 06:45:53;;;;;;;9.43;5.82;;;;;;;;;;5091135;28;20047;-65
2023/08/24 06:48:19;;;;;;;11.02;7.10;;;;;;;;;;5090970;28;20434;-66
2023/08/24 06:50:45;;;;;;;11.52;6.28;;;;;;;;;;5091271;28;20040;-65
2023/08/24 06:53:11;;;;;;;11.55;6.95;;;;;;;;;;5090920;28;20036;-65
2023/08/24 06:55:37;;;;;;;13.90;7.20;;;;;;;;;;5091012;28;20051;-65
2023/08/24 06:58:05;;;;;;;9.93;6.72;;;;;;;;;;5089998;28;20053;-65
2023/08/24 07:00:31;;;;;;;10.45;6.45;;;;;;;;;;5091260;28;20051;-65
2023/08/24 07:02:57;;;;;;;8.77;6.88;;;;;;;;;;5091051;28;20079;-66
2023/08/24 07:05:23;;;;;;;11.77;7.00;;;;;;;;;;5090968;28;20142;-64
2023/08/24 07:07:56;;;;;;;10.60;7.35;;;;;;;;;;5085463;28;20434;-65
2023/08/24 07:10:22;;;;;;;14.10;7.88;;;;;;;;;;5081605;28;20243;-64
2023/08/24 07:12:48;;;;;;;14.00;7.70;;;;;;;;;;5090549;28;20085;-64
2023/08/24 07:15:14;;;;;;;13.73;8.38;;;;;;;;;;5090892;28;20082;-64
2023/08/24 07:17:40;;;;;;;12.13;7.78;;;;;;;;;;5090152;28;20047;-65
2023/08/24 07:20:11;;;;;;;11.63;8.85;;;;;;;;;;5094216;28;20036;-64
2023/08/24 07:22:37;;;;;;;13.60;8.65;;;;;;;;;;5077061;28;20112;-64
2023/08/24 07:25:05;;;;;;;14.63;8.77;;;;;;;;;;5091405;28;20466;-64
2023/08/24 07:27:32;;;;;;;18.05;8.77;;;;;;;;;;5094493;28;20055;-64
2023/08/24 07:29:59;;;;;;;12.07;8.13;;;;;;;;;;5093996;28;20044;-64
2023/08/24 07:32:26;;;;;;;16.00;8.75;;;;;;;;;;5087942;28;20051;-63
2023/08/24 07:34:53;;;;;;;16.42;9.68;;;;;;;;;;5082718;28;20169;-64
2023/08/24 07:37:19;;;;;;;13.05;8.45;;;;;;;;;;5080669;28;20037;-64
2023/08/24 07:39:45;;;;;;;16.63;9.35;;;;;;;;;;5090757;28;20036;-64
2023/08/24 07:42:11;;;;;;;10.55;8.40;;;;;;;;;;5085946;28;20406;-64
2023/08/24 07:44:37;;;;;;;14.85;9.32;;;;;;;;;;5087961;28;20040;-65
2023/08/24 07:47:03;;;;;;;13.00;8.73;;;;;;;;;;5086868;28;20040;-64
2023/08/24 07:49:29;;;;;;;13.23;7.93;;;;;;;;;;5076243;28;20036;-64
2023/08/24 07:51:56;;;;;;;15.43;8.82;;;;;;;;;;5076720;28;20074;-65
2023/08/24 07:54:23;;;;;;;13.68;8.85;;;;;;;;;;5084311;28;20048;-65
2023/08/24 07:56:49;;;;;;;13.07;8.45;;;;;;;;;;5077749;28;20052;-64
2023/08/24 07:59:15;;;;;;;14.93;8.43;;;;;;;;;;5090602;28;20377;-65
2023/08/24 08:01:41;;;;;;;21.23;8.88;;;;;;;;;;5083242;28;20134;-65
2023/08/24 08:04:07;;;;;;;11.40;7.90;;;;;;;;;;5080958;28;20127;-64
2023/08/24 08:06:33;;;;;;;13.55;8.48;;;;;;;;;;5077552;28;20786;-63
2023/08/24 08:09:00;;;;;;;16.58;9.05;;;;;;;;;;5083184;28;20051;-64
2023/08/24 08:11:26;;;;;;;15.18;8.48;;;;;;;;;;5084006;28;20144;-64
2023/08/24 08:13:52;;;;;;;16.60;9.93;;;;;;;;;;5083618;28;20247;-65
2023/08/24 08:16:18;;;;;;;14.05;8.63;;;;;;;;;;5076637;28;20122;-65
2023/08/24 08:18:44;;;;;;;14.88;8.80;;;;;;;;;;5086388;28;20166;-65
2023/08/24 08:21:11;;;;;;;15.77;10.40;;;;;;;;;;5087984;28;20043;-65
2023/08/24 08:23:38;;;;;;;18.08;9.80;;;;;;;;;;5084722;28;20163;-65
2023/08/24 08:26:04;;;;;;;15.07;10.00;;;;;;;;;;5085675;28;20052;-66
2023/08/24 08:28:33;;;;;;;20.33;10.07;;;;;;;;;;5083730;28;20519;-65
2023/08/24 08:30:59;;;;;;;15.52;9.13;;;;;;;;;;5079297;28;20146;-65
2023/08/24 08:33:25;;;;;;;16.30;9.13;;;;;;;;;;5060761;28;20051;-65
2023/08/24 08:35:51;;;;;;;15.45;10.20;;;;;;;;;;5080355;28;20071;-65
2023/08/24 08:38:17;;;;;;;15.82;10.23;;;;;;;;;;5094911;28;20155;-65
2023/08/24 08:40:44;;;;;;;15.25;9.27;;;;;;;;;;5078195;28;20043;-65
2023/08/24 08:43:10;;;;;;;11.27;8.25;;;;;;;;;;5089765;28;20131;-65
2023/08/24 08:45:36;;;;;;;15.68;9.55;;;;;;;;;;5086305;28;20697;-64
2023/08/24 08:48:03;;;;;;;19.27;10.18;;;;;;;;;;5084580;28;20040;-64
2023/08/24 08:50:30;;;;;;;15.45;9.77;;;;;;;;;;5090163;28;20131;-64
2023/08/24 08:52:57;;;;;;;13.77;9.48;;;;;;;;;;5088693;28;20424;-64
2023/08/24 08:55:23;;;;;;;13.63;9.15;;;;;;;;;;5091731;28;20055;-64
2023/08/24 08:57:49;;;;;;;13.32;8.65;;;;;;;;;;5077400;28;20040;-64
2023/08/24 09:00:17;;;;;;;14.60;9.55;;;;;;;;;;5080544;28;20391;-64
2023/08/24 09:02:44;;;;;;;20.55;9.48;;;;;;;;;;5091325;28;20044;-64
2023/08/24 09:05:11;;;;;;;15.07;8.35;;;;;;;;;;5091411;28;20169;-64
2023/08/24 09:07:37;;;;;;;13.02;9.73;;;;;;;;;;5081085;28;20036;-65
2023/08/24 09:10:04;;;;;;;15.30;9.70;;;;;;;;;;5076499;28;20036;-66
2023/08/24 09:12:34;;;;;;;14.30;9.75;;;;;;;;;;5077587;28;20615;-64
2023/08/24 09:15:00;;;;;;;13.32;9.70;;;;;;;;;;5079607;28;20448;-64
2023/08/24 09:17:27;;;;;;;17.08;10.15;;;;;;;;;;5080963;28;20127;-64
2023/08/24 09:19:58;;;;;;;14.43;7.60;;;;;;;;;;5065973;28;20155;-64
2023/08/24 09:22:24;;;;;;;16.63;10.38;;;;;;;;;;5080442;28;20044;-65
2023/08/24 09:24:50;;;;;;;14.25;9.38;;;;;;;;;;5088142;28;20036;-65
2023/08/24 09:27:19;;;;;;;16.20;9.10;;;;;;;;;;5078822;28;20028;-65
2023/08/24 09:29:49;;;;;;;15.27;8.38;;;;;;;;;;5087771;28;20440;-64
2023/08/24 09:32:15;;;;;;;12.68;8.57;;;;;;;;;;5081314;28;20055;-64
2023/08/24 09:34:43;;;;;;;17.30;9.40;;;;;;;;;;5077021;28;20159;-64
2023/08/24 09:37:15;;;;;;;14.80;8.95;;;;;;;;;;5083878;28;20090;-64
2023/08/24 09:39:43;;;;;;;15.40;9.52;;;;;;;;;;5080691;28;20084;-64
2023/08/24 09:42:09;;;;;;;13.57;8.23;;;;;;;;;;5087446;28;20402;-64
2023/08/24 09:44:36;;;;;;;12.82;9.00;;;;;;;;;;5086976;28;21613;-65
2023/08/24 09:47:02;;;;;;;10.85;8.20;;;;;;;;;;5086687;28;20036;-65
2023/08/24 09:49:29;;;;;;;13.00;8.48;;;;;;;;;;5081711;28;20481;-64
2023/08/24 09:51:59;;;;;;;15.60;9.30;;;;;;;;;;5081265;28;20032;-64
2023/08/24 09:54:28;;;;;;;12.05;7.60;;;;;;;;;;5088599;28;20044;-64
2023/08/24 09:56:56;;;;;;;14.45;7.97;;;;;;;;;;5087353;28;20131;-63
2023/08/24 09:59:24;;;;;;;14.13;8.90;;;;;;;;;;5087801;28;20718;-66
2023/08/24 10:01:51;;;;;;;12.80;8.40;;;;;;;;;;5081366;28;20129;-66
2023/08/24 10:04:28;;;;;;;13.35;7.65;;;;;;;;;;5083159;28;20048;-65
2023/08/24 10:07:15;;;;;;;14.68;8.00;;;;;;;;;;5083892;28;20141;-66
2023/08/24 10:09:46;;;;;;;11.88;8.27;;;;;;;;;;5085610;28;20406;-66
2023/08/24 10:12:14;;;;;;;13.57;7.85;;;;;;;;;;5084679;28;20047;-64
2023/08/24 10:14:57;;;;;;;18.20;8.73;;;;;;;;;;5074057;28;20058;-66
2023/08/24 10:17:23;;;;;;;11.73;9.45;;;;;;;;;;5083923;28;20062;-65
2023/08/24 10:19:51;;;;;;;15.48;8.63;;;;;;;;;;5080464;28;20046;-65
2023/08/24 10:22:17;;;;;;;14.27;8.88;;;;;;;;;;5078175;28;20036;-66
2023/08/24 10:24:44;;;;;;;14.63;8.80;;;;;;;;;;5073416;28;20051;-66
2023/08/24 10:27:10;;;;;;;17.63;9.43;;;;;;;;;;5073975;28;20118;-64
2023/08/24 10:29:36;;;;;;;12.25;8.95;;;;;;;;;;5089470;28;20474;-64
2023/08/24 10:32:03;;;;;;;14.90;8.98;;;;;;;;;;5089411;28;20047;-64
2023/08/24 10:34:29;;;;;;;14.40;8.73;;;;;;;;;;5075532;28;20048;-64
2023/08/24 10:36:57;;;;;;;15.20;8.05;;;;;;;;;;5088233;28;20115;-64
2023/08/24 10:39:29;;;;;;;14.32;9.70;;;;;;;;;;5090190;28;20056;-64
2023/08/24 10:41:55;;;;;;;12.80;9.48;;;;;;;;;;5089686;28;20445;-64
2023/08/24 10:44:25;;;;;;;17.52;9.30;;;;;;;;;;5081761;28;20534;-64
2023/08/24 10:47:10;;;;;;;14.60;9.88;;;;;;;;;;5085345;28;20165;-64
2023/08/24 10:49:36;;;;;;;14.23;9.10;;;;;;;;;;5089911;28;20044;-64
2023/08/24 10:52:21;;;;;;;13.95;8.90;;;;;;;;;;5089495;28;20044;-64
2023/08/24 10:54:51;;;;;;;12.55;9.10;;;;;;;;;;5079935;28;20059;-64
2023/08/24 10:57:23;;;;;;;12.75;7.88;;;;;;;;;;5094903;28;20067;-64
2023/08/24 10:59:49;;;;;;;;;;;;;;;;;;5094840;28;20436;-64
2023/08/24 11:02:19;;;;;;;14.52;9.18;;;;;;;;;;5093979;28;19945;-64
2023/08/24 11:05:05;;;;;;;13.82;8.90;;;;;;;;;;5094407;28;20040;-64
2023/08/24 11:07:31;;;;;;;11.90;7.80;;;;;;;;;;5080732;28;20182;-64
2023/08/24 11:09:57;;;;;;;13.23;8.52;;;;;;;;;;5093592;28;20107;-63
2023/08/24 11:12:23;;;;;;;15.05;9.45;;;;;;;;;;5092066;28;20036;-64
2023/08/24 11:14:58;;;;;;;15.32;8.90;;;;;;;;;;5092454;28;20044;-64
2023/08/24 11:17:25;;;;;;;11.38;9.70;;;;;;;;;;5085463;28;20063;-64
2023/08/24 11:19:52;;;;;;;18.58;9.55;;;;;;;;;;5089349;28;20126;-63
2023/08/24 11:22:18;;;;;;;10.80;9.00;;;;;;;;;;5083951;28;20044;-64
2023/08/24 11:24:44;;;;;;;14.10;8.77;;;;;;;;;;5091437;28;20097;-64
2023/08/24 11:27:10;;;;;;;13.23;10.52;;;;;;;;;;5092415;28;20038;-64
2023/08/24 11:29:36;;;;;;;15.15;10.65;;;;;;;;;;5089860;28;20093;-64
2023/08/24 11:32:03;;;;;;;15.57;9.35;;;;;;;;;;5081026;28;20040;-64
2023/08/24 11:34:30;;;;;;;12.20;8.85;;;;;;;;;;5083049;28;20040;-65
2023/08/24 11:36:56;;;;;;;14.73;10.05;;;;;;;;;;5091797;28;20124;-64
2023/08/24 11:39:24;;;;;;;19.90;10.30;;;;;;;;;;5085952;28;20059;-64
2023/08/24 11:42:03;;;;;;;14.82;10.18;;;;;;;;;;5088787;28;20076;-63
2023/08/24 11:44:30;;;;;;;13.93;10.63;;;;;;;;;;5089682;28;20524;-63
2023/08/24 11:46:59;;;;;;;18.35;10.68;;;;;;;;;;5093057;28;20706;-64
2023/08/24 11:49:25;;;;;;;14.25;10.57;;;;;;;;;;5092642;28;20513;-64
2023/08/24 11:51:52;;;;;;;15.93;9.55;;;;;;;;;;5088184;28;20480;-64
2023/08/24 11:54:20;;;;;;;13.00;9.30;;;;;;;;;;5087578;28;20071;-63
2023/08/24 11:56:46;;;;;;;14.82;9.38;;;;;;;;;;5083436;28;20892;-63
2023/08/24 11:59:16;;;;;;;10.57;9.50;;;;;;;;;;5089451;28;20461;-63
2023/08/24 12:01:43;;;;;;;14.43;9.85;;;;;;;;;;5092398;28;20093;-64
2023/08/24 12:04:09;;;;;;;13.88;9.02;;;;;;;;;;5091584;28;20048;-63
2023/08/24 12:06:36;;;;;;;14.88;10.30;;;;;;;;;;5085124;28;20044;-63
2023/08/24 12:09:05;;;;;;;10.43;9.00;;;;;;;;;;5091341;28;20581;-63
2023/08/24 12:11:35;;;;;;;14.27;10.15;;;;;;;;;;5083063;28;20079;-64
2023/08/24 12:14:01;;;;;;;13.32;8.55;;;;;;;;;;5089550;28;20036;-64
2023/08/24 12:16:27;;;;;;;14.45;9.05;;;;;;;;;;5092093;28;21726;-64
2023/08/24 12:18:59;;;;;;;12.63;8.90;;;;;;;;;;5086615;28;20075;-63
2023/08/24 12:21:25;;;;;;;;;;;;;;;;;;5090735;28;20110;-63
2023/08/24 12:24:09;;;;;;;14.35;8.52;;;;;;;;;;5091155;28;19920;-63
2023/08/24 12:26:35;;;;;;;12.63;8.88;;;;;;;;;;5087508;28;20058;-64
2023/08/24 12:29:05;;;;;;;11.10;8.88;;;;;;;;;;5090654;28;20388;-63
2023/08/24 12:31:32;;;;;;;12.77;8.02;;;;;;;;;;5089863;28;20054;-63
2023/08/24 12:34:02;;;;;;;12.80;8.15;;;;;;;;;;5089441;28;20062;-63
2023/08/24 12:36:28;;;;;;;13.38;8.95;;;;;;;;;;5086819;28;20044;-64
2023/08/24 12:38:54;;;;;;;9.45;7.68;;;;;;;;;;5076239;28;20087;-63
2023/08/24 12:41:20;;;;;;;9.52;7.38;;;;;;;;;;5083079;28;20452;-64
2023/08/24 12:43:46;;;;;;;12.85;9.02;;;;;;;;;;5083873;28;20060;-63
2023/08/24 12:46:12;;;;;;;10.25;7.78;;;;;;;;;;5080191;28;20051;-63
2023/08/24 12:48:38;;;;;;;12.63;7.78;;;;;;;;;;5089375;28;20039;-64
2023/08/24 12:51:04;;;;;;;10.65;7.30;;;;;;;;;;5088918;28;20035;-62
2023/08/24 12:53:30;;;;;;;9.80;7.00;;;;;;;;;;5088311;28;20078;-63
2023/08/24 12:55:56;;;;;;;9.93;7.40;;;;;;;;;;5091288;28;20047;-63
2023/08/24 12:58:22;;;;;;;12.93;8.15;;;;;;;;;;5091010;28;20089;-63
2023/08/24 13:00:48;;;;;;;11.82;7.22;;;;;;;;;;5090471;28;20127;-63
2023/08/24 13:03:14;;;;;;;10.85;7.45;;;;;;;;;;5090265;28;20404;-63
2023/08/24 13:05:40;;;;;;;9.30;7.20;;;;;;;;;;5079795;28;20035;-63
2023/08/24 13:08:06;;;;;;;9.90;7.20;;;;;;;;;;5089761;28;20040;-63
2023/08/24 13:10:33;;;;;;;11.38;8.05;;;;;;;;;;5089567;28;20047;-64
2023/08/24 13:12:59;;;;;;;10.82;7.45;;;;;;;;;;5087448;28;20376;-63
2023/08/24 13:15:26;;;;;;;8.68;6.55;;;;;;;;;;5091609;28;20036;-63
2023/08/24 13:17:52;;;;;;;9.32;7.43;;;;;;;;;;5081726;28;20100;-64
2023/08/24 13:20:18;;;;;;;10.85;7.43;;;;;;;;;;5084831;28;20127;-64
2023/08/24 13:22:44;;;;;;;10.30;7.18;;;;;;;;;;5091713;28;20044;-63
2023/08/24 13:25:10;;;;;;;11.32;7.20;;;;;;;;;;5090981;28;20047;-65
2023/08/24 13:27:36;;;;;;;9.02;7.03;;;;;;;;;;5088676;28;20038;-64
2023/08/24 13:30:04;;;;;;;8.73;6.05;;;;;;;;;;5091474;28;20044;-63
2023/08/24 13:32:30;;;;;;;9.02;7.30;;;;;;;;;;5091646;28;20746;-63
2023/08/24 13:34:56;;;;;;;9.93;6.22;;;;;;;;;;5091229;28;20093;-63
2023/08/24 13:37:23;;;;;;;9.43;7.60;;;;;;;;;;5091544;28;20040;-64
2023/08/24 13:39:50;;;;;;;12.07;8.15;;;;;;;;;;5091571;28;20055;-64
2023/08/24 13:42:16;;;;;;;11.60;8.30;;;;;;;;;;5090820;28;20044;-62
2023/08/24 13:44:42;;;;;;;9.32;7.53;;;;;;;;;;5091443;28;20044;-64
2023/08/24 13:47:08;;;;;;;11.07;7.82;;;;;;;;;;5091453;28;20032;-63
2023/08/24 13:49:34;;;;;;;11.32;7.97;;;;;;;;;;5090992;28;20127;-64
2023/08/24 13:52:00;;;;;;;11.25;8.20;;;;;;;;;;5091031;28;20093;-64
2023/08/24 13:54:26;;;;;;;13.07;8.35;;;;;;;;;;5090999;28;20055;-64
2023/08/24 13:56:53;;;;;;;11.57;8.73;;;;;;;;;;5091167;28;20036;-63
2023/08/24 13:59:21;;;;;;;15.48;8.75;;;;;;;;;;5086255;28;20044;-63
2023/08/24 14:01:47;;;;;;;9.80;7.78;;;;;;;;;;5091297;28;20048;-64
2023/08/24 14:04:13;;;;;;;8.10;6.43;;;;;;;;;;5090519;28;20105;-64
2023/08/24 14:06:40;;;;;;;10.77;6.95;;;;;;;;;;5091296;28;20093;-65
2023/08/24 14:09:06;;;;;;;14.85;7.97;;;;;;;;;;5085171;28;20046;-63
2023/08/24 14:11:32;;;;;;;15.15;8.00;;;;;;;;;;5086337;28;20445;-64
2023/08/24 14:13:59;;;;;;;12.73;8.05;;;;;;;;;;5087123;28;20043;-63
2023/08/24 14:16:25;;;;;;;14.32;8.88;;;;;;;;;;5080695;28;20036;-63
2023/08/24 14:18:52;;;;;;;13.70;8.40;;;;;;;;;;5088666;28;20035;-65
2023/08/24 14:21:23;;;;;;;11.40;8.25;;;;;;;;;;5090546;28;20066;-64
2023/08/24 14:23:49;;;;;;;18.38;8.80;;;;;;;;;;5090836;28;20048;-65
2023/08/24 14:26:15;;;;;;;12.60;9.23;;;;;;;;;;5087526;28;20047;-62
2023/08/24 14:28:49;;;;;;;11.95;8.65;;;;;;;;;;5090202;28;20048;-63
2023/08/24 14:31:15;;;;;;;12.63;9.48;;;;;;;;;;5086097;28;20040;-64
2023/08/24 14:33:42;;;;;;;11.65;9.27;;;;;;;;;;5090249;28;20089;-61